首页
METAR-TAF:

METAR-TAF

机场 :

埃門, 瑞士

纬度: 47-05-32N, 经度: 8-18-16E, 海拔: 426米

当前天气观测

该预报发布于23分钟前的22:20 UTC
风速3节,风向南转西南,在南转南东西转西南之间变化
温度 25°C
湿度 74%
气压 1023 hPa
能見度: 8000

METAR: LSME 262220Z AUTO 20003KT 160V240 8000NDV NCD 25/20 Q1023 RMK

时间: 00:43 (22:43 UTC)


TAF: 丢失

超过4000个机场的气象观测和天气预报(METAR&TAF报告)。

可查询的气象台以黄色和红色小点在地图上表示。

将鼠标移到小点上方,可查看气象台名称。

然后点击查看天气观测和预报。

如需切换地图:点击带黑十字的绿色按钮放大地图;点击带横线的绿色按钮缩小地图;或者点击绿色箭头查看邻近地区的地图。


METAR-TAF: